Time;durP1;ratioP1;P1;durP2;ratioP2;P2;SDS_P1;SDS_P2;PMS_P1;PMS_P2;Temp;Humidity;BMP_temperature;BMP_pressure;BME280_temperature;BME280_humidity;BME280_pressure;Samples;Min_cycle;Max_cycle;Signal;HPM_P1;HPM_P2
2022/06/14 00:01:36;;;;;;;5.55;5.05;;;;;;;20.14;63.53;94879.28;5058847;28;20238;-66
2022/06/14 00:04:02;;;;;;;7.88;5.30;;;;;;;19.98;64.50;94869.94;5053775;28;20279;-62
2022/06/14 00:06:31;;;;;;;5.68;5.10;;;;;;;19.96;64.87;94872.81;5055194;28;20224;-71
2022/06/14 00:08:57;;;;;;;5.80;5.03;;;;;;;19.95;64.99;94865.84;5054822;28;20229;-67
2022/06/14 00:11:25;;;;;;;6.97;5.45;;;;;;;19.80;65.80;94874.09;5061520;28;20315;-68
2022/06/14 00:13:52;;;;;;;6.18;5.57;;;;;;;19.81;66.11;94874.94;5054151;28;22774;-70
2022/06/14 00:16:19;;;;;;;7.03;5.05;;;;;;;19.82;65.95;94876.56;5061391;28;20240;-68
2022/06/14 00:18:45;;;;;;;5.97;5.28;;;;;;;19.73;65.61;94875.19;5058113;28;20319;-71
2022/06/14 00:21:10;;;;;;;9.55;5.03;;;;;;;19.78;65.48;94870.84;5056306;28;20324;-68
2022/06/14 00:23:36;;;;;;;6.45;4.97;;;;;;;19.79;65.79;94877.81;5052150;28;20259;-68
2022/06/14 00:26:03;;;;;;;5.50;4.93;;;;;;;19.76;65.62;94880.91;5060983;28;20241;-64
2022/06/14 00:28:31;;;;;;;6.40;5.30;;;;;;;19.70;65.99;94873.78;5047273;28;20224;-71
2022/06/14 00:31:00;;;;;;;5.28;4.78;;;;;;;19.68;66.11;94875.00;5055248;28;20236;-68
2022/06/14 00:33:26;;;;;;;10.10;5.78;;;;;;;19.64;65.90;94879.91;5051750;28;20329;-68
2022/06/14 00:35:59;;;;;;;6.38;5.72;;;;;;;19.63;65.88;94882.78;5056896;28;20354;-68
2022/06/14 00:38:25;;;;;;;8.18;5.88;;;;;;;19.56;65.93;94866.81;5054461;28;20213;-67
2022/06/14 00:40:55;;;;;;;9.60;6.32;;;;;;;19.52;66.02;94866.41;5067974;28;20232;-63
2022/06/14 00:43:20;;;;;;;6.80;6.07;;;;;;;19.50;66.31;94862.31;5058881;28;20235;-68
2022/06/14 00:45:46;;;;;;;8.70;6.35;;;;;;;19.48;66.52;94864.38;5060037;28;20244;-73
2022/06/14 00:48:15;;;;;;;9.00;6.43;;;;;;;19.41;66.74;94876.94;5055061;28;20227;-68
2022/06/14 00:50:47;;;;;;;6.45;5.93;;;;;;;19.33;66.85;94870.78;5058468;28;20235;-69
2022/06/14 00:53:33;;;;;;;21.52;6.07;;;;;;;19.37;67.10;94885.31;5054355;28;20225;-72
2022/06/14 00:56:13;;;;;;;6.65;5.63;;;;;;;19.49;66.74;94892.69;5054680;28;20282;-67
2022/06/14 00:58:48;;;;;;;6.47;5.85;;;;;;;18.93;68.80;94878.84;5055626;28;20217;-67
2022/06/14 01:01:18;;;;;;;12.13;6.95;;;;;;;18.93;69.24;94889.50;5055318;28;21438;-71
2022/06/14 01:03:48;;;;;;;7.28;6.20;;;;;;;19.00;69.19;94894.00;5049149;28;20312;-67
2022/06/14 01:06:27;;;;;;;8.57;6.32;;;;;;;19.09;68.70;94888.25;5043567;28;20329;-68
2022/06/14 01:09:08;;;;;;;6.90;5.82;;;;;;;19.05;68.87;94887.03;5049786;28;20225;-68
2022/06/14 01:11:41;;;;;;;7.18;6.25;;;;;;;18.98;69.29;94878.25;5037432;28;20217;-71
2022/06/14 01:14:10;;;;;;;7.15;6.45;;;;;;;19.04;68.98;94879.25;5037822;28;20245;-63
2022/06/14 01:16:36;;;;;;;8.43;6.40;;;;;;;19.03;68.96;94878.44;5036508;28;20209;-70
2022/06/14 01:19:09;;;;;;;8.65;7.22;;;;;;;19.31;67.71;94880.00;5063854;28;20512;-68
2022/06/14 01:21:34;;;;;;;7.80;6.63;;;;;;;19.21;68.12;94880.44;5052143;28;20236;-67
2022/06/14 01:23:59;;;;;;;7.65;6.95;;;;;;;19.13;68.25;94875.34;5061035;28;20474;-68
2022/06/14 01:26:27;;;;;;;7.35;6.75;;;;;;;19.09;68.37;94871.47;5061116;28;20346;-63
2022/06/14 01:28:57;;;;;;;7.43;6.60;;;;;;;19.22;68.03;94878.59;5053382;28;20263;-63
2022/06/14 01:31:25;;;;;;;10.63;6.45;;;;;;;19.14;68.19;94869.81;5052698;28;20205;-68
2022/06/14 01:33:56;;;;;;;7.63;6.57;;;;;;;19.10;68.41;94871.22;5051975;28;20229;-68
2022/06/14 01:36:32;;;;;;;9.30;6.47;;;;;;;19.04;68.58;94861.41;5054340;28;20282;-64
2022/06/14 01:39:02;;;;;;;9.30;6.80;;;;;;;19.09;68.55;94858.13;5073461;28;20231;-70
2022/06/14 01:41:50;;;;;;;13.18;7.25;;;;;;;19.08;68.71;94856.47;5071811;28;20285;-67
2022/06/14 01:44:40;;;;;;;7.07;6.32;;;;;;;18.95;69.10;94867.97;5056442;28;20227;-69
2022/06/14 01:47:31;;;;;;;10.00;6.97;;;;;;;18.86;69.67;94871.91;5054725;28;20320;-63
2022/06/14 01:53:23;;;;;;;7.82;7.22;;;;;;;18.88;68.88;94872.50;5061094;28;20820;-66
2022/06/14 01:56:15;;;;;;;7.32;6.63;;;;;;;18.71;69.66;94874.72;5075364;28;20209;-72
2022/06/14 01:58:51;;;;;;;8.02;7.15;;;;;;;18.76;69.46;94874.16;5007666;28;20214;-68
2022/06/14 02:01:32;;;;;;;8.52;7.10;;;;;;;18.64;69.98;94874.75;5024741;28;20201;-68
2022/06/14 02:04:39;;;;;;;7.57;6.78;;;;;;;18.67;69.80;94889.50;5006271;28;20269;-69
2022/06/14 02:07:24;;;;;;;7.95;6.93;;;;;;;18.58;70.08;94883.56;4984795;28;20266;-69
2022/06/14 02:10:11;;;;;;;7.32;6.70;;;;;;;18.61;70.21;94888.47;4969486;28;20228;-72
2022/06/14 02:13:18;;;;;;;7.45;6.80;;;;;;;18.64;69.97;94889.91;4990710;28;20239;-71
2022/06/14 02:15:50;;;;;;;11.52;7.45;;;;;;;18.67;69.37;94892.16;4985655;28;20223;-68
2022/06/14 02:18:25;;;;;;;10.05;7.60;;;;;;;18.61;69.38;94890.31;4986452;28;20265;-73
2022/06/14 02:21:20;;;;;;;7.25;6.68;;;;;;;18.51;69.80;94888.88;4985513;28;20257;-63
2022/06/14 02:23:56;;;;;;;8.20;6.95;;;;;;;18.42;70.41;94892.75;4966977;28;20251;-64
2022/06/14 02:26:28;;;;;;;8.07;6.93;;;;;;;18.54;70.23;94895.63;4970812;28;20227;-69
2022/06/14 02:29:04;;;;;;;9.77;7.43;;;;;;;18.65;69.65;94903.00;4973361;28;20450;-66
2022/06/14 02:31:38;;;;;;;7.45;6.75;;;;;;;18.45;70.46;94902.19;4985810;28;20253;-72
2022/06/14 02:34:10;;;;;;;8.02;7.22;;;;;;;18.46;70.42;94901.16;4987006;28;20242;-68
2022/06/14 02:36:52;;;;;;;9.85;7.88;;;;;;;18.46;70.19;94903.81;4980614;28;20392;-67
2022/06/14 02:39:23;;;;;;;8.50;7.72;;;;;;;18.39;69.78;94881.69;4980976;28;20238;-73
2022/06/14 02:41:58;;;;;;;8.50;7.65;;;;;;;18.57;69.50;94908.53;4977527;28;20402;-63
2022/06/14 02:44:33;;;;;;;8.48;7.70;;;;;;;18.57;69.69;94910.38;5064257;28;20236;-73
2022/06/14 02:47:14;;;;;;;10.05;8.10;;;;;;;18.58;69.78;94912.00;5066603;28;20239;-72
2022/06/14 02:49:39;;;;;;;9.00;8.18;;;;;;;18.54;69.72;94918.78;5062133;28;20198;-64
2022/06/14 02:52:21;;;;;;;9.18;8.38;;;;;;;18.27;70.87;94922.22;5060811;28;20239;-63
2022/06/14 02:54:55;;;;;;;8.90;8.05;;;;;;;18.20;71.11;94923.22;5052922;28;20311;-67
2022/06/14 02:57:44;;;;;;;8.57;7.97;;;;;;;18.21;71.22;94928.34;5052689;28;20228;-68
2022/06/14 03:00:19;;;;;;;8.95;7.75;;;;;;;18.13;71.60;94930.38;5054722;28;20249;-73
2022/06/14 03:02:51;;;;;;;8.55;7.85;;;;;;;18.07;71.87;94927.50;5046039;28;20255;-68
2022/06/14 03:05:36;;;;;;;8.35;7.63;;;;;;;18.08;71.85;94937.09;5033182;28;20260;-69
2022/06/14 03:08:20;;;;;;;10.38;8.20;;;;;;;18.09;72.26;94937.91;5036128;28;20376;-64
2022/06/14 03:11:12;;;;;;;9.85;8.85;;;;;;;18.14;71.93;94930.16;5036832;28;20320;-63
2022/06/14 03:14:10;;;;;;;10.10;9.18;;;;;;;18.28;71.31;94947.81;5035857;28;20206;-68
2022/06/14 03:16:44;;;;;;;9.82;8.82;;;;;;;18.22;71.30;94947.78;5035527;28;20245;-67
2022/06/14 03:19:43;;;;;;;12.55;9.10;;;;;;;18.15;72.02;94941.63;5045152;28;20208;-68
2022/06/14 03:22:23;;;;;;;10.02;9.00;;;;;;;18.20;71.59;94942.69;5026200;28;20248;-67
2022/06/14 03:25:04;;;;;;;10.23;9.30;;;;;;;18.29;71.21;94949.44;5042019;28;20225;-68
2022/06/14 03:27:41;;;;;;;15.43;10.27;;;;;;;18.31;71.23;94933.28;5043919;28;20232;-64
2022/06/14 03:30:19;;;;;;;10.35;9.32;;;;;;;18.38;71.03;94938.63;5043906;28;20224;-67
2022/06/14 03:33:10;;;;;;;10.13;8.70;;;;;;;18.32;71.17;94928.78;5043037;28;20239;-62
2022/06/14 03:35:41;;;;;;;10.05;8.93;;;;;;;18.28;71.00;94937.19;5043182;28;20238;-67
2022/06/14 03:38:17;;;;;;;9.07;8.13;;;;;;;18.37;70.03;94924.50;5038406;28;20280;-68
2022/06/14 03:40:45;;;;;;;10.55;8.68;;;;;;;18.42;69.20;94934.53;5026463;28;20205;-67
2022/06/14 03:43:11;;;;;;;9.38;8.52;;;;;;;18.41;69.27;94925.72;5024609;28;20264;-72
2022/06/14 03:45:49;;;;;;;9.50;8.50;;;;;;;18.47;68.79;94937.38;5021104;28;20229;-63
2022/06/14 03:48:14;;;;;;;11.13;9.10;;;;;;;18.62;68.76;94926.56;5038057;28;20236;-69
2022/06/14 03:51:21;;;;;;;11.00;9.90;;;;;;;18.76;68.34;94927.41;5035962;28;20234;-67
2022/06/14 03:54:19;;;;;;;14.38;10.32;;;;;;;18.68;69.20;94933.72;5041357;28;20221;-72
2022/06/14 03:56:53;;;;;;;12.43;10.77;;;;;;;18.54;69.95;94942.75;5033497;28;20276;-62
2022/06/14 03:59:30;;;;;;;11.50;10.40;;;;;;;18.64;69.93;94940.50;4994682;28;20223;-63
2022/06/14 04:05:44;;;;;;;13.73;11.80;;;;;;;18.67;70.10;94945.41;4993238;28;20257;-63
2022/06/14 04:08:35;;;;;;;14.18;11.73;;;;;;;18.66;70.19;94946.47;4974427;28;20279;-69
2022/06/14 04:11:03;;;;;;;12.60;11.48;;;;;;;18.22;72.19;94951.25;4958928;28;20293;-72
2022/06/14 04:13:37;;;;;;;13.25;12.00;;;;;;;18.39;71.81;94945.56;4974537;28;20211;-70
2022/06/14 04:16:09;;;;;;;12.15;10.85;;;;;;;18.21;72.43;94941.66;4976423;28;20301;-67
2022/06/14 04:18:58;;;;;;;13.00;11.80;;;;;;;18.52;71.59;94954.44;4972399;28;20242;-67
2022/06/14 04:21:54;;;;;;;12.15;10.95;;;;;;;18.84;69.96;94945.88;4971413;28;20226;-63
2022/06/14 04:24:25;;;;;;;13.35;11.25;;;;;;;18.97;69.25;94945.06;4991979;28;20231;-71
2022/06/14 04:26:57;;;;;;;13.05;11.07;;;;;;;18.99;69.05;94957.16;4978563;28;20231;-68
2022/06/14 04:29:25;;;;;;;11.50;10.40;;;;;;;19.13;68.69;94960.63;4981642;28;20239;-63
2022/06/14 04:32:02;;;;;;;13.13;11.80;;;;;;;19.19;68.40;94962.44;5003591;28;20412;-69
2022/06/14 04:34:35;;;;;;;12.25;11.10;;;;;;;19.25;68.34;94961.66;5021749;28;20337;-67
2022/06/14 04:37:41;;;;;;;12.15;10.90;;;;;;;19.30;68.12;94967.19;5040641;28;20276;-63
2022/06/14 04:40:20;;;;;;;13.95;11.73;;;;;;;19.32;68.18;94966.97;5031546;28;20565;-71
2022/06/14 04:42:58;;;;;;;14.75;11.85;;;;;;;19.44;67.97;94967.16;5038683;28;20266;-71
2022/06/14 04:45:54;;;;;;;13.05;11.82;;;;;;;19.45;68.12;94969.59;5049314;28;20226;-70
2022/06/14 04:48:29;;;;;;;12.55;11.32;;;;;;;19.50;67.83;94966.31;5052025;28;20239;-68
2022/06/14 04:51:12;;;;;;;11.52;10.45;;;;;;;19.71;67.09;94974.09;5043798;28;20246;-67
2022/06/14 04:53:55;;;;;;;12.55;11.48;;;;;;;20.05;66.49;94975.63;5037028;28;20226;-70
2022/06/14 04:56:26;;;;;;;13.25;11.90;;;;;;;20.29;64.91;94983.97;5038053;28;20291;-70
2022/06/14 04:58:59;;;;;;;13.30;12.10;;;;;;;20.33;64.33;94984.34;5054212;28;20231;-64
2022/06/14 05:01:32;;;;;;;16.55;12.32;;;;;;;20.40;64.35;94985.13;5041763;28;20210;-68
2022/06/14 05:04:04;;;;;;;15.02;12.85;;;;;;;20.63;63.58;94980.06;5023324;28;20245;-65
2022/06/14 05:07:05;;;;;;;14.35;12.85;;;;;;;20.53;64.19;94985.06;5029148;28;20293;-68
2022/06/14 05:09:38;;;;;;;13.82;12.48;;;;;;;20.59;64.39;94984.22;5038172;28;20274;-64
2022/06/14 05:12:10;;;;;;;13.30;11.93;;;;;;;20.51;64.53;94987.13;5034928;28;20222;-64
2022/06/14 05:14:43;;;;;;;12.23;11.02;;;;;;;20.65;64.18;94987.91;5005714;28;20236;-68
2022/06/14 05:17:18;;;;;;;13.93;11.60;;;;;;;20.56;64.19;94982.00;5004112;28;20300;-72
2022/06/14 05:20:02;;;;;;;16.15;11.57;;;;;;;20.56;65.08;94997.22;5021172;28;20245;-65
2022/06/14 05:22:53;;;;;;;17.77;12.40;;;;;;;20.50;65.30;94990.81;5041002;28;20234;-68
2022/06/14 05:25:20;;;;;;;13.15;11.77;;;;;;;20.54;65.03;94984.06;5021589;28;20280;-66
2022/06/14 05:28:01;;;;;;;15.57;11.93;;;;;;;20.62;65.09;94994.47;5021999;28;20229;-71
2022/06/14 05:30:51;;;;;;;13.82;12.40;;;;;;;20.73;65.82;95003.66;5003404;28;20304;-65
2022/06/14 05:33:54;;;;;;;13.30;12.00;;;;;;;20.94;64.90;94999.84;5001725;28;20312;-68
2022/06/14 05:36:31;;;;;;;12.73;11.35;;;;;;;20.92;64.80;95008.06;5003413;28;20241;-66
2022/06/14 05:38:59;;;;;;;10.80;9.70;;;;;;;21.03;64.35;95005.72;5007732;28;20218;-64
2022/06/14 05:41:39;;;;;;;8.80;7.65;;;;;;;21.03;64.18;95011.88;5008910;28;20256;-68
2022/06/14 05:44:15;;;;;;;8.85;7.90;;;;;;;21.03;64.06;95016.41;5022985;28;20226;-72
2022/06/14 05:47:11;;;;;;;8.02;7.07;;;;;;;21.11;63.53;95019.63;5030160;28;20218;-65
2022/06/14 05:49:41;;;;;;;11.40;7.47;;;;;;;21.19;62.57;95021.22;5022019;28;20313;-67
2022/06/14 05:52:13;;;;;;;9.18;7.10;;;;;;;21.21;62.82;95013.81;5044074;28;20304;-66
2022/06/14 05:54:58;;;;;;;6.68;6.07;;;;;;;21.20;62.42;95025.56;5041367;28;20236;-70
2022/06/14 05:57:38;;;;;;;9.52;7.05;;;;;;;21.12;62.96;95029.31;5038986;28;20241;-70
2022/06/14 06:00:23;;;;;;;6.85;6.15;;;;;;;21.23;62.54;95027.78;5035944;28;20225;-65
2022/06/14 06:02:54;;;;;;;8.50;6.82;;;;;;;21.15;62.45;95033.41;5034432;28;20241;-63
2022/06/14 06:05:25;;;;;;;8.90;7.15;;;;;;;21.21;62.30;95031.72;5032722;28;20233;-63
2022/06/14 06:08:14;;;;;;;10.52;7.70;;;;;;;21.17;62.62;95030.50;5035068;28;20219;-68
2022/06/14 06:10:43;;;;;;;7.53;6.80;;;;;;;21.13;62.64;95036.28;5035028;28;20226;-63
2022/06/14 06:13:19;;;;;;;11.63;6.47;;;;;;;21.15;62.37;95026.19;5034451;28;20210;-68
2022/06/14 06:15:47;;;;;;;7.30;6.70;;;;;;;21.26;62.36;95037.25;5035407;28;20360;-66
2022/06/14 06:18:21;;;;;;;7.13;5.90;;;;;;;21.18;61.58;95041.00;5041221;28;20237;-70
2022/06/14 06:20:49;;;;;;;7.90;6.10;;;;;;;21.16;61.84;95035.03;5037050;28;20249;-70
2022/06/14 06:23:22;;;;;;;6.53;5.90;;;;;;;21.06;62.22;95040.03;5036059;28;20233;-68
2022/06/14 06:25:54;;;;;;;7.43;5.88;;;;;;;21.19;62.10;95041.81;5041370;28;20237;-68
2022/06/14 06:28:35;;;;;;;7.22;6.47;;;;;;;21.31;61.45;95046.25;5039934;28;20251;-69
2022/06/14 06:31:07;;;;;;;6.93;6.10;;;;;;;21.29;61.84;95044.81;5023652;28;20240;-66
2022/06/14 06:33:40;;;;;;;8.32;6.10;;;;;;;21.44;61.58;95044.50;5037869;28;20222;-66
2022/06/14 06:36:43;;;;;;;9.02;6.70;;;;;;;21.42;61.47;95036.72;5024477;28;20272;-68
2022/06/14 06:39:25;;;;;;;8.43;7.50;;;;;;;21.44;61.22;95042.69;5037999;28;20226;-67
2022/06/14 06:42:14;;;;;;;10.93;7.90;;;;;;;21.40;61.54;95043.31;5038511;28;20260;-65
2022/06/14 06:44:57;;;;;;;8.13;7.32;;;;;;;21.61;60.88;95042.94;5015371;28;20238;-67
2022/06/14 06:47:46;;;;;;;6.85;6.15;;;;;;;21.74;60.05;95050.03;5005890;28;20644;-65
2022/06/14 06:50:23;;;;;;;6.93;6.07;;;;;;;21.74;60.00;95050.03;5028135;28;20636;-68
2022/06/14 06:53:06;;;;;;;7.05;6.32;;;;;;;21.84;60.19;95050.34;5039016;28;20205;-68
2022/06/14 06:56:00;;;;;;;6.57;6.00;;;;;;;21.89;59.61;95058.53;5039008;28;20266;-67
2022/06/14 06:58:34;;;;;;;7.22;6.50;;;;;;;21.97;59.59;95058.25;5036792;28;20213;-69
2022/06/14 07:01:04;;;;;;;6.90;6.15;;;;;;;21.98;59.37;95057.19;5042300;28;20229;-69
2022/06/14 07:03:51;;;;;;;7.03;6.00;;;;;;;22.02;59.18;95061.09;5038672;28;20242;-68
2022/06/14 07:06:26;;;;;;;7.90;6.10;;;;;;;21.95;58.83;95071.03;5033410;28;20234;-62
2022/06/14 07:09:10;;;;;;;6.05;5.45;;;;;;;21.99;57.85;95069.53;5054234;28;20232;-63
2022/06/14 07:12:07;;;;;;;6.10;5.50;;;;;;;21.86;58.37;95069.66;5035589;28;20233;-64
2022/06/14 07:14:44;;;;;;;7.45;6.15;;;;;;;21.96;58.36;95069.97;5038641;28;20233;-66
2022/06/14 07:17:45;;;;;;;7.68;6.18;;;;;;;22.02;58.40;95066.44;5039465;28;20225;-63
2022/06/14 07:20:35;;;;;;;7.60;6.93;;;;;;;22.15;57.75;95061.97;5024621;28;20282;-65
2022/06/14 07:23:16;;;;;;;6.43;5.93;;;;;;;22.12;58.38;95057.06;5050756;28;20288;-64
2022/06/14 07:25:52;;;;;;;7.15;6.28;;;;;;;22.20;57.47;95065.66;5025432;28;20272;-68
2022/06/14 07:28:31;;;;;;;6.28;5.85;;;;;;;22.31;57.72;95063.28;5022256;28;20216;-63
2022/06/14 07:31:03;;;;;;;7.05;6.30;;;;;;;22.55;57.44;95065.03;5043953;28;20236;-68
2022/06/14 07:33:29;;;;;;;7.30;5.55;;;;;;;22.42;57.45;95057.97;5056007;28;20221;-71
2022/06/14 07:35:58;;;;;;;6.45;6.05;;;;;;;22.51;57.16;95076.41;5042664;28;20316;-69
2022/06/14 07:38:29;;;;;;;7.28;5.50;;;;;;;22.24;57.39;95069.53;5056501;28;20240;-65
2022/06/14 07:41:17;;;;;;;6.55;5.65;;;;;;;22.29;57.61;95060.81;5058742;28;20224;-64
2022/06/14 07:44:25;;;;;;;9.45;6.32;;;;;;;22.48;57.20;95076.88;5077268;28;20208;-63
2022/06/14 07:47:03;;;;;;;5.72;5.25;;;;;;;22.57;57.19;95070.19;5065436;28;20208;-71
2022/06/14 07:49:54;;;;;;;7.32;6.60;;;;;;;22.68;56.95;95072.91;5041757;28;20303;-62
2022/06/14 07:52:34;;;;;;;6.10;5.60;;;;;;;22.71;56.34;95076.19;5033858;28;20591;-67
2022/06/14 07:55:14;;;;;;;6.25;5.72;;;;;;;22.76;56.21;95077.16;5040702;28;20221;-71
2022/06/14 07:57:42;;;;;;;6.97;6.28;;;;;;;22.84;56.02;95076.81;5032764;28;20346;-70
2022/06/14 08:03:01;;;;;;;5.93;5.30;;;;;;;23.01;55.40;95074.34;5032988;28;20239;-65
2022/06/14 08:05:32;;;;;;;8.05;5.85;;;;;;;23.10;55.85;95077.56;5034141;28;20229;-66
2022/06/14 08:08:04;;;;;;;6.65;5.90;;;;;;;23.18;55.49;95079.91;5036233;28;20225;-69
2022/06/14 08:10:34;;;;;;;7.72;6.93;;;;;;;23.21;55.62;95074.09;5032701;28;20214;-63
2022/06/14 08:13:07;;;;;;;7.13;6.43;;;;;;;23.22;56.11;95072.22;5035126;28;20680;-71
2022/06/14 08:15:38;;;;;;;7.47;6.20;;;;;;;23.38;55.98;95071.53;5035545;28;20221;-68
2022/06/14 08:18:27;;;;;;;6.80;6.20;;;;;;;23.44;56.12;95075.16;5035223;28;20308;-68
2022/06/14 08:21:03;;;;;;;7.75;6.28;;;;;;;23.46;55.81;95073.09;5030648;28;20260;-65
2022/06/14 08:23:49;;;;;;;8.25;6.90;;;;;;;23.56;56.19;95071.47;5050556;28;20228;-66
2022/06/14 08:26:30;;;;;;;6.40;5.75;;;;;;;23.61;54.80;95057.34;5054532;28;20216;-63
2022/06/14 08:29:10;;;;;;;8.32;5.82;;;;;;;23.52;55.13;95058.72;5053794;28;20264;-62
2022/06/14 08:32:07;;;;;;;6.00;5.50;;;;;;;23.78;54.52;95052.94;5055912;28;20399;-69
2022/06/14 08:34:46;;;;;;;6.50;5.90;;;;;;;23.83;55.50;95052.25;5036793;28;20214;-65
2022/06/14 08:37:22;;;;;;;7.45;5.53;;;;;;;23.90;53.91;95050.28;5023162;28;20304;-64
2022/06/14 08:39:58;;;;;;;6.57;5.68;;;;;;;23.96;53.55;95045.84;5016771;28;20252;-70
2022/06/14 08:42:30;;;;;;;7.90;5.65;;;;;;;23.95;52.28;95044.19;5032325;28;20233;-66
2022/06/14 08:45:03;;;;;;;5.97;4.93;;;;;;;24.23;51.71;95037.28;5033800;28;20255;-65
2022/06/14 08:48:03;;;;;;;8.18;4.75;;;;;;;24.71;50.06;95047.69;5016585;28;20315;-66
2022/06/14 08:50:53;;;;;;;5.15;4.70;;;;;;;24.81;48.86;95041.72;5020102;28;20217;-66
2022/06/14 08:53:59;;;;;;;9.82;4.22;;;;;;;24.71;49.22;95052.28;5024826;28;20720;-69
2022/06/14 08:56:51;;;;;;;5.20;4.75;;;;;;;24.45;49.16;95048.25;5024245;28;20306;-68
2022/06/14 08:59:28;;;;;;;5.70;4.00;;;;;;;24.49;49.40;95041.34;4976829;28;20269;-71
2022/06/14 09:02:12;;;;;;;7.70;4.60;;;;;;;24.61;48.79;95044.81;4978045;28;20231;-65
2022/06/14 09:04:43;;;;;;;7.13;4.30;;;;;;;24.60;47.90;95035.94;4975632;28;20258;-64
2022/06/14 09:07:23;;;;;;;4.75;4.15;;;;;;;24.39;48.31;95044.59;4981015;28;20278;-65
2022/06/14 09:09:51;;;;;;;4.47;4.00;;;;;;;24.08;49.01;95038.56;4983658;28;20278;-69
2022/06/14 09:12:29;;;;;;;4.97;4.47;;;;;;;24.35;48.92;95030.00;5014443;28;20230;-63
2022/06/14 09:15:16;;;;;;;6.65;4.72;;;;;;;24.47;48.50;95030.00;5017454;28;20245;-67
2022/06/14 09:17:51;;;;;;;6.15;4.40;;;;;;;24.58;48.65;95032.66;5013781;28;20248;-65
2022/06/14 09:20:35;;;;;;;4.82;4.43;;;;;;;24.68;49.01;95042.00;5018256;28;20229;-68
2022/06/14 09:23:19;;;;;;;5.03;4.57;;;;;;;24.63;49.39;95032.75;5038064;28;20279;-65
2022/06/14 09:25:48;;;;;;;5.10;4.70;;;;;;;24.76;48.35;95038.91;5040778;28;20218;-70
2022/06/14 09:28:50;;;;;;;6.53;5.03;;;;;;;24.73;47.47;95036.72;5044596;28;20209;-63
2022/06/14 09:31:21;;;;;;;5.85;4.35;;;;;;;24.72;47.95;95033.19;5035068;28;20233;-69
2022/06/14 09:34:22;;;;;;;6.10;4.35;;;;;;;24.87;48.12;95030.78;5019146;28;21437;-68
2022/06/14 09:36:56;;;;;;;18.23;9.23;;;;;;;24.93;46.99;95028.19;5011912;28;20229;-66
2022/06/14 09:39:33;;;;;;;8.60;6.28;;;;;;;24.97;46.64;95032.88;5019929;28;20305;-67
2022/06/14 09:42:01;;;;;;;6.75;4.82;;;;;;;25.27;45.82;95035.31;5018176;28;20218;-64
2022/06/14 09:44:59;;;;;;;8.13;4.43;;;;;;;25.51;45.39;95038.66;5022771;28;20225;-65
2022/06/14 09:48:19;;;;;;;13.00;8.43;;;;;;;25.61;45.22;95037.19;5025095;28;20243;-68
2022/06/14 09:51:22;;;;;;;10.50;5.97;;;;;;;25.59;44.69;95044.72;4985042;28;20238;-68
2022/06/14 09:54:16;;;;;;;9.18;6.00;;;;;;;25.40;44.86;95046.81;5026050;28;20221;-69
2022/06/14 09:57:08;;;;;;;7.10;4.88;;;;;;;25.26;45.72;95054.38;5024275;28;20229;-64
2022/06/14 10:00:04;;;;;;;10.07;5.18;;;;;;;25.07;48.76;95051.03;5044394;28;20244;-66
2022/06/14 10:02:38;;;;;;;7.53;5.43;;;;;;;25.06;49.18;95042.16;5018470;28;20213;-64
2022/06/14 10:05:12;;;;;;;8.13;5.68;;;;;;;24.91;50.90;95044.56;5005668;28;20228;-69
2022/06/14 10:08:04;;;;;;;5.40;4.90;;;;;;;24.70;50.62;95042.53;5020446;28;20222;-65
2022/06/14 10:10:44;;;;;;;4.72;3.75;;;;;;;24.33;48.60;95042.88;5018942;28;20202;-68
2022/06/14 10:13:37;;;;;;;5.20;3.92;;;;;;;24.20;47.64;95044.75;5005748;28;20232;-68
2022/06/14 10:16:30;;;;;;;4.35;3.22;;;;;;;23.90;48.06;95054.84;5061207;28;20700;-66
2022/06/14 10:19:20;;;;;;;3.70;3.40;;;;;;;23.66;48.03;95045.94;5060776;28;20354;-69
2022/06/14 10:22:10;;;;;;;4.20;3.70;;;;;;;22.77;50.44;95046.59;5069626;28;20248;-70
2022/06/14 10:25:19;;;;;;;9.73;3.90;;;;;;;22.29;54.28;95047.41;5055481;28;20229;-69
2022/06/14 10:30:47;;;;;;;5.55;4.15;;;;;;;21.79;56.15;95064.38;5033009;28;20427;-66
2022/06/14 10:33:51;;;;;;;10.70;5.45;;;;;;;21.59;60.25;95063.75;5057752;28;20229;-72
2022/06/14 10:36:47;;;;;;;7.90;4.88;;;;;;;21.29;60.47;95060.88;5046088;28;20235;-69
2022/06/14 10:39:34;;;;;;;8.55;5.53;;;;;;;21.13;60.87;95056.88;5025824;28;20233;-70
2022/06/14 10:42:06;;;;;;;8.27;5.85;;;;;;;21.09;61.38;95063.66;5023311;28;20325;-66
2022/06/14 10:44:41;;;;;;;5.20;4.68;;;;;;;21.18;60.00;95058.91;5057659;28;20241;-67
2022/06/14 10:47:18;;;;;;;5.80;4.60;;;;;;;21.20;58.76;95063.00;5060441;28;20306;-69
2022/06/14 10:49:43;;;;;;;4.20;3.80;;;;;;;21.02;58.36;95055.69;5025780;28;20215;-69
2022/06/14 10:52:27;;;;;;;4.75;4.15;;;;;;;20.76;58.20;95054.00;5024131;28;20206;-67
2022/06/14 10:55:16;;;;;;;6.90;4.18;;;;;;;20.69;57.98;95053.25;5050645;28;20220;-68
2022/06/14 10:57:56;;;;;;;4.72;4.28;;;;;;;20.75;58.93;95051.56;5042386;28;20218;-68
2022/06/14 11:00:27;;;;;;;4.57;4.05;;;;;;;20.62;59.07;95058.59;5024775;28;20356;-67
2022/06/14 11:03:03;;;;;;;6.65;3.88;;;;;;;20.64;60.00;95066.41;5040735;28;20233;-69
2022/06/14 11:05:47;;;;;;;5.80;3.78;;;;;;;20.77;59.77;95073.53;5054967;28;20335;-70
2022/06/14 11:08:36;;;;;;;5.30;3.90;;;;;;;20.75;62.37;95073.75;5050872;28;20319;-69
2022/06/14 11:11:33;;;;;;;5.05;3.83;;;;;;;20.80;60.61;95073.13;5056058;28;20220;-69
2022/06/14 11:14:36;;;;;;;6.00;5.00;;;;;;;20.92;59.95;95068.72;5064011;28;20217;-68
2022/06/14 11:17:38;;;;;;;7.78;5.35;;;;;;;21.04;60.10;95074.22;5043749;28;20229;-71
2022/06/14 11:20:22;;;;;;;8.95;5.88;;;;;;;20.93;63.45;95083.75;5019009;28;20324;-67
2022/06/14 11:22:50;;;;;;;5.50;4.70;;;;;;;20.88;61.85;95068.34;5015288;28;20235;-68
2022/06/14 11:25:47;;;;;;;6.18;4.47;;;;;;;20.82;61.73;95063.84;5030096;28;20305;-71
2022/06/14 11:28:30;;;;;;;6.07;4.53;;;;;;;20.80;62.39;95060.56;5029840;28;20237;-70
2022/06/14 11:31:27;;;;;;;5.47;4.28;;;;;;;20.90;61.41;95055.59;5032010;28;20265;-69
2022/06/14 11:34:14;;;;;;;5.82;4.78;;;;;;;21.01;61.82;95053.22;5020318;28;20304;-70
2022/06/14 11:37:08;;;;;;;5.03;4.20;;;;;;;21.22;61.48;95055.56;5030493;28;20229;-68
2022/06/14 11:39:48;;;;;;;5.28;4.18;;;;;;;21.53;60.84;95053.91;5026300;28;20233;-68
2022/06/14 11:42:30;;;;;;;3.53;3.08;;;;;;;21.74;57.33;95042.81;5042765;28;20225;-70
2022/06/14 11:45:04;;;;;;;5.32;3.72;;;;;;;22.14;57.40;95030.88;5039784;28;20323;-69
2022/06/14 11:47:31;;;;;;;4.53;3.25;;;;;;;22.48;56.76;95040.19;5022208;28;20222;-65
2022/06/14 11:50:06;;;;;;;5.10;3.25;;;;;;;22.96;54.80;95031.34;5044578;28;20216;-66
2022/06/14 11:52:48;;;;;;;5.18;3.70;;;;;;;23.15;57.87;95023.19;5045908;28;20241;-69
2022/06/14 11:55:23;;;;;;;3.05;2.75;;;;;;;23.67;55.60;95036.81;5067295;28;20217;-67
2022/06/14 11:58:10;;;;;;;4.30;2.58;;;;;;;24.12;55.65;95023.63;5069230;28;20315;-66
2022/06/14 12:01:15;;;;;;;3.38;2.33;;;;;;;24.61;50.38;95029.50;5055927;28;20289;-66
2022/06/14 12:03:41;;;;;;;4.47;3.20;;;;;;;24.82;50.52;95027.19;5054363;28;20259;-63
2022/06/14 12:06:32;;;;;;;3.33;2.50;;;;;;;24.35;48.96;95025.47;5061528;28;20288;-65
2022/06/14 12:09:13;;;;;;;4.13;2.60;;;;;;;24.20;49.27;95020.56;5052845;28;20225;-70
2022/06/14 12:11:47;;;;;;;3.78;2.75;;;;;;;24.33;50.62;95032.13;5049900;28;20235;-64
2022/06/14 12:14:40;;;;;;;7.38;4.25;;;;;;;24.49;58.37;95036.78;5051117;28;20253;-66
2022/06/14 12:17:25;;;;;;;8.27;6.35;;;;;;;24.20;62.52;95042.06;5071556;27;20224;-64
2022/06/14 12:19:59;;;;;;;11.65;7.30;;;;;;;23.99;62.48;95043.50;5055400;28;20204;-68
2022/06/14 12:22:48;;;;;;;7.32;5.55;;;;;;;23.51;63.42;95043.69;5085138;28;20240;-66
2022/06/14 12:28:36;;;;;;;10.07;5.50;;;;;;;22.85;60.38;95029.38;5053360;28;20243;-62
2022/06/14 12:31:11;;;;;;;6.88;4.47;;;;;;;22.52;61.57;95013.75;5052622;28;20304;-69
2022/06/14 12:33:45;;;;;;;8.13;5.10;;;;;;;22.27;64.47;95017.38;5052847;28;20323;-66
2022/06/14 12:36:25;;;;;;;7.35;4.78;;;;;;;22.39;62.79;95009.38;5049733;28;20280;-69
2022/06/14 12:38:54;;;;;;;6.53;5.00;;;;;;;22.48;63.65;95007.22;5053573;28;20284;-68
2022/06/14 12:41:55;;;;;;;8.93;8.20;;;;;;;22.66;63.77;95004.50;5053121;28;20247;-66
2022/06/14 12:44:38;;;;;;;8.88;4.50;;;;;;;23.05;60.50;94999.63;5053425;28;20227;-68